Rechercher aéroport 
image banner adimage banner ad
image banner ad

SIVZ - Mata-Fome Airport

Situé à Itaqui, Brazil

ICAO - SIVZ, IATA -

Données fournies par Airmate  

Information générale

Coordonnées: S29°11'27" W56°32'55"
Élévation : 219 feet MSL.
Variation magnétique : -13° East
Voir autres Aéroports à Rio Grande do Sul

Données opérationnelles

Accessible au public
Heure actuelle UTC:
Heure actuelle locale:
Météo à : SARL - Paso De Los Libres ( 80 km )
METAR: SARL 271700Z 23015KT 8000 -TSRA BKN008 OVC035 FEW040CB 18/17 Q1008
Voir NOTAMs / SUP AIP / TFR affectant cet aéroport [VIEW]
Fréquences de communication: [VIEW]

Pistes:

Identifiant RWYQFULongueur (ft)Largeur (ft)SurfaceLDA (ft)
18229665DIRT
36229665DIRT

Coordonnées de l'aéroport

Adresse: Itaqui Brazil

Vue satellite de SIVZ